Pedro Luro, Argentina
Current Conditions -  °F | °C
As of 11:00 AM on Monday 24 Nov 2014 (Local Time) from SAZN Reporting Station
Clear Clear  
Wind Chill: 63°   Ceiling: Unl
Heat Index: 63°   Visibility: 6mi
Dew Point: 32°   Wind: 16mph
Humidity: 32%   Direction: 230°SW
Pressure: 30"   Gusts: NA
Location:  39.48°S, 62.68°W
Report Text: SAZN 241400Z 23014KT CAVOK 17/M00 Q1016
Loading
Personal Weather Stations






























Interactive Weather Map New forecast layout! Learn more

10-Day Weather Forecast

Advertisements
Track Severe Weather on mobile